sensor_id;sensor_type;location;lat;lon;timestamp;P1;durP1;ratioP1;P2;durP2;ratioP2
15931;SDS011;8065;49.520;11.284;2023-04-24T00:01:05;1.50;;;1.40;;
15931;SDS011;8065;49.520;11.284;2023-04-24T00:03:32;2.43;;;1.47;;
15931;SDS011;8065;49.520;11.284;2023-04-24T00:06:00;2.27;;;1.20;;
15931;SDS011;8065;49.520;11.284;2023-04-24T00:08:27;1.40;;;1.30;;
15931;SDS011;8065;49.520;11.284;2023-04-24T00:10:53;1.90;;;1.40;;
15931;SDS011;8065;49.520;11.284;2023-04-24T00:13:20;1.70;;;1.60;;
15931;SDS011;8065;49.520;11.284;2023-04-24T00:15:46;1.50;;;1.40;;
15931;SDS011;8065;49.520;11.284;2023-04-24T00:18:13;1.80;;;1.40;;
15931;SDS011;8065;49.520;11.284;2023-04-24T00:20:39;1.80;;;1.53;;
15931;SDS011;8065;49.520;11.284;2023-04-24T00:23:07;1.57;;;1.20;;
15931;SDS011;8065;49.520;11.284;2023-04-24T00:25:34;2.70;;;1.40;;
15931;SDS011;8065;49.520;11.284;2023-04-24T00:28:00;1.77;;;1.47;;
15931;SDS011;8065;49.520;11.284;2023-04-24T00:30:27;2.20;;;1.53;;
15931;SDS011;8065;49.520;11.284;2023-04-24T00:32:53;2.77;;;1.30;;
15931;SDS011;8065;49.520;11.284;2023-04-24T00:35:20;1.80;;;1.70;;
15931;SDS011;8065;49.520;11.284;2023-04-24T00:37:46;2.70;;;1.70;;
15931;SDS011;8065;49.520;11.284;2023-04-24T00:40:14;2.87;;;1.20;;
15931;SDS011;8065;49.520;11.284;2023-04-24T00:42:41;2.00;;;1.63;;
15931;SDS011;8065;49.520;11.284;2023-04-24T00:45:09;2.97;;;1.40;;
15931;SDS011;8065;49.520;11.284;2023-04-24T00:47:36;1.60;;;1.50;;
15931;SDS011;8065;49.520;11.284;2023-04-24T00:50:03;3.87;;;1.50;;
15931;SDS011;8065;49.520;11.284;2023-04-24T00:52:30;1.70;;;1.33;;
15931;SDS011;8065;49.520;11.284;2023-04-24T00:54:57;1.57;;;1.40;;
15931;SDS011;8065;49.520;11.284;2023-04-24T00:57:25;1.57;;;1.47;;
15931;SDS011;8065;49.520;11.284;2023-04-24T00:59:52;1.93;;;1.37;;
15931;SDS011;8065;49.520;11.284;2023-04-24T01:02:19;1.63;;;1.53;;
15931;SDS011;8065;49.520;11.284;2023-04-24T01:04:49;1.80;;;1.70;;
15931;SDS011;8065;49.520;11.284;2023-04-24T01:07:17;1.53;;;1.27;;
15931;SDS011;8065;49.520;11.284;2023-04-24T01:09:45;2.57;;;1.50;;
15931;SDS011;8065;49.520;11.284;2023-04-24T01:12:15;2.30;;;1.70;;
15931;SDS011;8065;49.520;11.284;2023-04-24T01:14:44;1.50;;;1.40;;
15931;SDS011;8065;49.520;11.284;2023-04-24T01:17:10;1.40;;;1.30;;
15931;SDS011;8065;49.520;11.284;2023-04-24T01:19:37;1.43;;;1.33;;
15931;SDS011;8065;49.520;11.284;2023-04-24T01:22:08;1.60;;;1.50;;
15931;SDS011;8065;49.520;11.284;2023-04-24T01:24:36;2.00;;;1.30;;
15931;SDS011;8065;49.520;11.284;2023-04-24T01:27:03;1.67;;;1.43;;
15931;SDS011;8065;49.520;11.284;2023-04-24T01:29:29;2.53;;;1.63;;
15931;SDS011;8065;49.520;11.284;2023-04-24T01:31:56;2.03;;;1.67;;
15931;SDS011;8065;49.520;11.284;2023-04-24T01:34:25;2.37;;;1.50;;
15931;SDS011;8065;49.520;11.284;2023-04-24T01:36:54;1.60;;;1.50;;
15931;SDS011;8065;49.520;11.284;2023-04-24T01:39:23;1.30;;;1.20;;
15931;SDS011;8065;49.520;11.284;2023-04-24T01:41:50;1.60;;;1.50;;
15931;SDS011;8065;49.520;11.284;2023-04-24T01:44:17;2.33;;;1.57;;
15931;SDS011;8065;49.520;11.284;2023-04-24T01:46:43;1.47;;;1.37;;
15931;SDS011;8065;49.520;11.284;2023-04-24T01:49:10;1.63;;;1.40;;
15931;SDS011;8065;49.520;11.284;2023-04-24T01:51:37;2.40;;;1.30;;
15931;SDS011;8065;49.520;11.284;2023-04-24T01:54:03;1.60;;;1.50;;
15931;SDS011;8065;49.520;11.284;2023-04-24T01:56:31;1.33;;;1.23;;
15931;SDS011;8065;49.520;11.284;2023-04-24T01:58:59;1.97;;;1.47;;
15931;SDS011;8065;49.520;11.284;2023-04-24T02:01:29;2.47;;;1.40;;
15931;SDS011;8065;49.520;11.284;2023-04-24T02:03:59;2.60;;;1.70;;
15931;SDS011;8065;49.520;11.284;2023-04-24T02:06:26;2.73;;;1.50;;
15931;SDS011;8065;49.520;11.284;2023-04-24T02:08:52;2.07;;;1.47;;
15931;SDS011;8065;49.520;11.284;2023-04-24T02:11:19;2.87;;;1.60;;
15931;SDS011;8065;49.520;11.284;2023-04-24T02:13:46;2.80;;;1.90;;
15931;SDS011;8065;49.520;11.284;2023-04-24T02:16:13;1.70;;;1.60;;
15931;SDS011;8065;49.520;11.284;2023-04-24T02:18:39;2.17;;;1.70;;
15931;SDS011;8065;49.520;11.284;2023-04-24T02:21:06;2.63;;;2.00;;
15931;SDS011;8065;49.520;11.284;2023-04-24T02:23:32;2.03;;;1.83;;
15931;SDS011;8065;49.520;11.284;2023-04-24T02:25:59;1.90;;;1.60;;
15931;SDS011;8065;49.520;11.284;2023-04-24T02:28:25;1.93;;;1.80;;
15931;SDS011;8065;49.520;11.284;2023-04-24T02:30:53;1.80;;;1.57;;
15931;SDS011;8065;49.520;11.284;2023-04-24T02:33:19;1.63;;;1.50;;
15931;SDS011;8065;49.520;11.284;2023-04-24T02:35:46;3.37;;;1.70;;
15931;SDS011;8065;49.520;11.284;2023-04-24T02:38:12;1.97;;;1.67;;
15931;SDS011;8065;49.520;11.284;2023-04-24T02:40:38;2.53;;;1.53;;
15931;SDS011;8065;49.520;11.284;2023-04-24T02:43:05;1.83;;;1.53;;
15931;SDS011;8065;49.520;11.284;2023-04-24T02:45:31;1.77;;;1.43;;
15931;SDS011;8065;49.520;11.284;2023-04-24T02:48:00;1.50;;;1.40;;
15931;SDS011;8065;49.520;11.284;2023-04-24T02:50:27;2.80;;;1.67;;
15931;SDS011;8065;49.520;11.284;2023-04-24T02:52:53;3.67;;;1.80;;
15931;SDS011;8065;49.520;11.284;2023-04-24T02:55:20;1.60;;;1.50;;
15931;SDS011;8065;49.520;11.284;2023-04-24T02:57:46;1.70;;;1.60;;
15931;SDS011;8065;49.520;11.284;2023-04-24T03:00:13;2.00;;;1.60;;
15931;SDS011;8065;49.520;11.284;2023-04-24T03:02:40;1.70;;;1.33;;
15931;SDS011;8065;49.520;11.284;2023-04-24T03:05:08;2.20;;;1.77;;
15931;SDS011;8065;49.520;11.284;2023-04-24T03:07:36;3.20;;;1.70;;
15931;SDS011;8065;49.520;11.284;2023-04-24T03:10:03;3.53;;;1.80;;
15931;SDS011;8065;49.520;11.284;2023-04-24T03:12:30;1.60;;;1.50;;
15931;SDS011;8065;49.520;11.284;2023-04-24T03:14:57;1.97;;;1.87;;
15931;SDS011;8065;49.520;11.284;2023-04-24T03:17:23;3.53;;;1.80;;
15931;SDS011;8065;49.520;11.284;2023-04-24T03:19:50;2.03;;;1.80;;
15931;SDS011;8065;49.520;11.284;2023-04-24T03:22:18;2.13;;;1.70;;
15931;SDS011;8065;49.520;11.284;2023-04-24T03:24:44;1.53;;;1.43;;
15931;SDS011;8065;49.520;11.284;2023-04-24T03:27:11;2.80;;;1.97;;
15931;SDS011;8065;49.520;11.284;2023-04-24T03:29:37;1.80;;;1.70;;
15931;SDS011;8065;49.520;11.284;2023-04-24T03:32:03;1.80;;;1.70;;
15931;SDS011;8065;49.520;11.284;2023-04-24T03:34:30;1.60;;;1.50;;
15931;SDS011;8065;49.520;11.284;2023-04-24T03:36:56;1.70;;;1.60;;
15931;SDS011;8065;49.520;11.284;2023-04-24T03:39:24;3.13;;;1.93;;
15931;SDS011;8065;49.520;11.284;2023-04-24T03:41:52;2.23;;;2.03;;
15931;SDS011;8065;49.520;11.284;2023-04-24T03:44:18;2.87;;;2.07;;
15931;SDS011;8065;49.520;11.284;2023-04-24T03:46:45;3.43;;;1.80;;
15931;SDS011;8065;49.520;11.284;2023-04-24T03:49:11;1.90;;;1.80;;
15931;SDS011;8065;49.520;11.284;2023-04-24T03:51:37;2.10;;;1.70;;
15931;SDS011;8065;49.520;11.284;2023-04-24T03:54:04;2.70;;;1.80;;
15931;SDS011;8065;49.520;11.284;2023-04-24T03:56:32;3.17;;;1.87;;
15931;SDS011;8065;49.520;11.284;2023-04-24T03:58:58;2.93;;;1.83;;
15931;SDS011;8065;49.520;11.284;2023-04-24T04:01:25;2.17;;;2.07;;
15931;SDS011;8065;49.520;11.284;2023-04-24T04:03:53;2.27;;;1.90;;
15931;SDS011;8065;49.520;11.284;2023-04-24T04:06:19;2.07;;;1.90;;
15931;SDS011;8065;49.520;11.284;2023-04-24T04:08:46;1.60;;;1.50;;
15931;SDS011;8065;49.520;11.284;2023-04-24T04:11:12;2.73;;;2.13;;
15931;SDS011;8065;49.520;11.284;2023-04-24T04:13:40;2.10;;;1.93;;
15931;SDS011;8065;49.520;11.284;2023-04-24T04:16:07;2.47;;;1.90;;
15931;SDS011;8065;49.520;11.284;2023-04-24T04:18:34;1.73;;;1.63;;
15931;SDS011;8065;49.520;11.284;2023-04-24T04:21:01;2.47;;;1.60;;
15931;SDS011;8065;49.520;11.284;2023-04-24T04:23:27;2.00;;;1.80;;
15931;SDS011;8065;49.520;11.284;2023-04-24T04:25:54;2.63;;;1.77;;
15931;SDS011;8065;49.520;11.284;2023-04-24T04:28:20;3.93;;;1.90;;
15931;SDS011;8065;49.520;11.284;2023-04-24T04:30:48;2.00;;;1.80;;
15931;SDS011;8065;49.520;11.284;2023-04-24T04:33:18;1.80;;;1.70;;
15931;SDS011;8065;49.520;11.284;2023-04-24T04:35:45;3.03;;;1.73;;
15931;SDS011;8065;49.520;11.284;2023-04-24T04:38:13;1.70;;;1.60;;
15931;SDS011;8065;49.520;11.284;2023-04-24T04:40:41;1.70;;;1.60;;
15931;SDS011;8065;49.520;11.284;2023-04-24T04:43:08;2.07;;;1.90;;
15931;SDS011;8065;49.520;11.284;2023-04-24T04:45:35;3.33;;;1.70;;
15931;SDS011;8065;49.520;11.284;2023-04-24T04:48:03;2.33;;;2.00;;
15931;SDS011;8065;49.520;11.284;2023-04-24T04:50:32;2.00;;;1.80;;
15931;SDS011;8065;49.520;11.284;2023-04-24T04:52:58;1.57;;;1.47;;
15931;SDS011;8065;49.520;11.284;2023-04-24T04:55:25;3.03;;;1.77;;
15931;SDS011;8065;49.520;11.284;2023-04-24T04:57:51;2.23;;;1.50;;
15931;SDS011;8065;49.520;11.284;2023-04-24T05:00:18;1.57;;;1.47;;
15931;SDS011;8065;49.520;11.284;2023-04-24T05:02:44;1.70;;;1.60;;
15931;SDS011;8065;49.520;11.284;2023-04-24T05:05:12;1.57;;;1.47;;
15931;SDS011;8065;49.520;11.284;2023-04-24T05:07:39;1.70;;;1.53;;
15931;SDS011;8065;49.520;11.284;2023-04-24T05:10:05;2.10;;;1.90;;
15931;SDS011;8065;49.520;11.284;2023-04-24T05:12:33;2.20;;;1.83;;
15931;SDS011;8065;49.520;11.284;2023-04-24T05:14:59;1.80;;;1.70;;
15931;SDS011;8065;49.520;11.284;2023-04-24T05:17:26;1.80;;;1.70;;
15931;SDS011;8065;49.520;11.284;2023-04-24T05:19:52;3.43;;;1.80;;
15931;SDS011;8065;49.520;11.284;2023-04-24T05:22:20;2.60;;;1.90;;
15931;SDS011;8065;49.520;11.284;2023-04-24T05:24:47;2.93;;;2.10;;
15931;SDS011;8065;49.520;11.284;2023-04-24T05:27:13;2.23;;;2.00;;
15931;SDS011;8065;49.520;11.284;2023-04-24T05:29:40;3.87;;;1.90;;
15931;SDS011;8065;49.520;11.284;2023-04-24T05:32:06;2.57;;;2.00;;
15931;SDS011;8065;49.520;11.284;2023-04-24T05:34:33;9.30;;;7.30;;
15931;SDS011;8065;49.520;11.284;2023-04-24T05:36:59;25.70;;;18.63;;
15931;SDS011;8065;49.520;11.284;2023-04-24T05:39:27;43.10;;;29.83;;
15931;SDS011;8065;49.520;11.284;2023-04-24T05:41:54;17.57;;;13.40;;
15931;SDS011;8065;49.520;11.284;2023-04-24T05:44:22;6.40;;;5.47;;
15931;SDS011;8065;49.520;11.284;2023-04-24T05:46:49;3.70;;;3.40;;
15931;SDS011;8065;49.520;11.284;2023-04-24T05:49:15;4.30;;;2.93;;
15931;SDS011;8065;49.520;11.284;2023-04-24T05:51:42;3.13;;;2.83;;
15931;SDS011;8065;49.520;11.284;2023-04-24T05:54:08;4.17;;;3.43;;
15931;SDS011;8065;49.520;11.284;2023-04-24T05:56:38;3.10;;;2.80;;
15931;SDS011;8065;49.520;11.284;2023-04-24T05:59:05;4.60;;;3.07;;
15931;SDS011;8065;49.520;11.284;2023-04-24T06:01:32;4.40;;;2.77;;
15931;SDS011;8065;49.520;11.284;2023-04-24T06:03:59;4.23;;;3.43;;
15931;SDS011;8065;49.520;11.284;2023-04-24T06:06:25;5.17;;;2.83;;
15931;SDS011;8065;49.520;11.284;2023-04-24T06:08:52;2.67;;;2.47;;
15931;SDS011;8065;49.520;11.284;2023-04-24T06:11:18;4.30;;;2.80;;
15931;SDS011;8065;49.520;11.284;2023-04-24T06:13:46;6.60;;;2.90;;
15931;SDS011;8065;49.520;11.284;2023-04-24T06:16:13;3.53;;;2.60;;
15931;SDS011;8065;49.520;11.284;2023-04-24T06:18:39;2.00;;;1.90;;
15931;SDS011;8065;49.520;11.284;2023-04-24T06:21:06;4.20;;;2.30;;
15931;SDS011;8065;49.520;11.284;2023-04-24T06:23:32;4.93;;;2.40;;
15931;SDS011;8065;49.520;11.284;2023-04-24T06:25:59;3.23;;;2.20;;
15931;SDS011;8065;49.520;11.284;2023-04-24T06:28:25;4.33;;;2.40;;
15931;SDS011;8065;49.520;11.284;2023-04-24T06:30:53;2.30;;;2.10;;
15931;SDS011;8065;49.520;11.284;2023-04-24T06:33:19;2.17;;;1.97;;
15931;SDS011;8065;49.520;11.284;2023-04-24T06:35:46;5.17;;;2.80;;
15931;SDS011;8065;49.520;11.284;2023-04-24T06:38:12;2.43;;;2.23;;
15931;SDS011;8065;49.520;11.284;2023-04-24T06:40:39;3.03;;;2.03;;
15931;SDS011;8065;49.520;11.284;2023-04-24T06:43:05;2.40;;;2.20;;
15931;SDS011;8065;49.520;11.284;2023-04-24T06:45:32;2.30;;;2.03;;
15931;SDS011;8065;49.520;11.284;2023-04-24T06:48:00;2.23;;;1.70;;
15931;SDS011;8065;49.520;11.284;2023-04-24T06:50:26;2.10;;;1.80;;
15931;SDS011;8065;49.520;11.284;2023-04-24T06:52:53;4.00;;;1.50;;
15931;SDS011;8065;49.520;11.284;2023-04-24T06:55:19;3.03;;;1.50;;
15931;SDS011;8065;49.520;11.284;2023-04-24T06:57:45;1.47;;;1.37;;
15931;SDS011;8065;49.520;11.284;2023-04-24T07:00:12;3.37;;;1.77;;
15931;SDS011;8065;49.520;11.284;2023-04-24T07:02:39;1.40;;;1.30;;
15931;SDS011;8065;49.520;11.284;2023-04-24T07:05:08;1.73;;;1.30;;
15931;SDS011;8065;49.520;11.284;2023-04-24T07:07:34;2.10;;;1.50;;
15931;SDS011;8065;49.520;11.284;2023-04-24T07:10:03;2.97;;;1.60;;
15931;SDS011;8065;49.520;11.284;2023-04-24T07:12:29;3.30;;;1.70;;
15931;SDS011;8065;49.520;11.284;2023-04-24T07:14:56;1.50;;;1.33;;
15931;SDS011;8065;49.520;11.284;2023-04-24T07:17:23;1.10;;;1.00;;
15931;SDS011;8065;49.520;11.284;2023-04-24T07:19:49;4.40;;;1.50;;
15931;SDS011;8065;49.520;11.284;2023-04-24T07:22:17;2.30;;;1.53;;
15931;SDS011;8065;49.520;11.284;2023-04-24T07:24:43;1.20;;;1.10;;
15931;SDS011;8065;49.520;11.284;2023-04-24T07:27:10;1.20;;;1.10;;
15931;SDS011;8065;49.520;11.284;2023-04-24T07:29:37;1.40;;;1.30;;
15931;SDS011;8065;49.520;11.284;2023-04-24T07:32:03;2.13;;;1.00;;
15931;SDS011;8065;49.520;11.284;2023-04-24T07:34:29;1.70;;;1.00;;
15931;SDS011;8065;49.520;11.284;2023-04-24T07:36:56;0.90;;;0.90;;
15931;SDS011;8065;49.520;11.284;2023-04-24T07:39:24;1.03;;;1.03;;
15931;SDS011;8065;49.520;11.284;2023-04-24T07:41:51;1.57;;;1.10;;
15931;SDS011;8065;49.520;11.284;2023-04-24T07:44:17;1.60;;;1.20;;
15931;SDS011;8065;49.520;11.284;2023-04-24T07:46:45;1.10;;;1.10;;
15931;SDS011;8065;49.520;11.284;2023-04-24T07:49:11;2.17;;;1.20;;
15931;SDS011;8065;49.520;11.284;2023-04-24T07:51:37;1.33;;;1.23;;
15931;SDS011;8065;49.520;11.284;2023-04-24T07:54:04;1.10;;;1.10;;
15931;SDS011;8065;49.520;11.284;2023-04-24T07:56:33;1.40;;;1.30;;
15931;SDS011;8065;49.520;11.284;2023-04-24T07:59:01;1.63;;;1.20;;
15931;SDS011;8065;49.520;11.284;2023-04-24T08:01:27;2.13;;;1.40;;
15931;SDS011;8065;49.520;11.284;2023-04-24T08:03:54;2.17;;;1.30;;
15931;SDS011;8065;49.520;11.284;2023-04-24T08:06:20;1.87;;;1.37;;
15931;SDS011;8065;49.520;11.284;2023-04-24T08:08:47;3.37;;;1.53;;
15931;SDS011;8065;49.520;11.284;2023-04-24T08:11:13;2.37;;;1.63;;
15931;SDS011;8065;49.520;11.284;2023-04-24T08:13:41;1.40;;;1.30;;
15931;SDS011;8065;49.520;11.284;2023-04-24T08:16:07;1.20;;;1.10;;
15931;SDS011;8065;49.520;11.284;2023-04-24T08:18:34;2.17;;;1.33;;
15931;SDS011;8065;49.520;11.284;2023-04-24T08:21:00;1.40;;;1.30;;
15931;SDS011;8065;49.520;11.284;2023-04-24T08:23:27;2.53;;;1.23;;
15931;SDS011;8065;49.520;11.284;2023-04-24T08:25:54;1.90;;;1.40;;
15931;SDS011;8065;49.520;11.284;2023-04-24T08:28:21;1.93;;;1.30;;
15931;SDS011;8065;49.520;11.284;2023-04-24T08:30:49;1.30;;;1.20;;
15931;SDS011;8065;49.520;11.284;2023-04-24T08:33:19;1.70;;;1.60;;
15931;SDS011;8065;49.520;11.284;2023-04-24T08:35:45;1.93;;;1.53;;
15931;SDS011;8065;49.520;11.284;2023-04-24T08:38:12;2.07;;;1.30;;
15931;SDS011;8065;49.520;11.284;2023-04-24T08:40:39;1.70;;;1.60;;
15931;SDS011;8065;49.520;11.284;2023-04-24T08:43:05;2.17;;;1.50;;
15931;SDS011;8065;49.520;11.284;2023-04-24T08:45:32;1.80;;;1.50;;
15931;SDS011;8065;49.520;11.284;2023-04-24T08:48:00;2.10;;;1.60;;
15931;SDS011;8065;49.520;11.284;2023-04-24T08:50:28;1.67;;;1.53;;
15931;SDS011;8065;49.520;11.284;2023-04-24T08:52:55;1.70;;;1.43;;
15931;SDS011;8065;49.520;11.284;2023-04-24T08:55:22;1.70;;;1.60;;
15931;SDS011;8065;49.520;11.284;2023-04-24T08:57:51;1.97;;;1.80;;
15931;SDS011;8065;49.520;11.284;2023-04-24T09:00:19;3.00;;;1.73;;
15931;SDS011;8065;49.520;11.284;2023-04-24T09:02:47;1.87;;;1.70;;
15931;SDS011;8065;49.520;11.284;2023-04-24T09:05:17;3.27;;;1.73;;
15931;SDS011;8065;49.520;11.284;2023-04-24T09:07:44;1.80;;;1.70;;
15931;SDS011;8065;49.520;11.284;2023-04-24T09:10:13;1.80;;;1.70;;
15931;SDS011;8065;49.520;11.284;2023-04-24T09:12:39;2.67;;;1.80;;
15931;SDS011;8065;49.520;11.284;2023-04-24T09:15:07;3.33;;;2.00;;
15931;SDS011;8065;49.520;11.284;2023-04-24T09:17:34;3.07;;;1.80;;
15931;SDS011;8065;49.520;11.284;2023-04-24T09:20:01;2.90;;;1.70;;
15931;SDS011;8065;49.520;11.284;2023-04-24T09:22:30;2.40;;;2.13;;
15931;SDS011;8065;49.520;11.284;2023-04-24T09:25:00;3.20;;;1.90;;
15931;SDS011;8065;49.520;11.284;2023-04-24T09:27:29;3.90;;;2.07;;
15931;SDS011;8065;49.520;11.284;2023-04-24T09:29:55;2.63;;;2.07;;
15931;SDS011;8065;49.520;11.284;2023-04-24T09:32:23;3.30;;;1.80;;
15931;SDS011;8065;49.520;11.284;2023-04-24T09:35:04;2.53;;;1.90;;
15931;SDS011;8065;49.520;11.284;2023-04-24T09:37:35;1.97;;;1.77;;
15931;SDS011;8065;49.520;11.284;2023-04-24T09:40:13;1.87;;;1.60;;
15931;SDS011;8065;49.520;11.284;2023-04-24T09:42:43;2.10;;;1.90;;
15931;SDS011;8065;49.520;11.284;2023-04-24T09:45:11;1.77;;;1.60;;
15931;SDS011;8065;49.520;11.284;2023-04-24T09:47:38;2.40;;;1.70;;
15931;SDS011;8065;49.520;11.284;2023-04-24T09:50:12;1.90;;;1.80;;
15931;SDS011;8065;49.520;11.284;2023-04-24T09:52:41;1.50;;;1.40;;
15931;SDS011;8065;49.520;11.284;2023-04-24T09:55:16;2.23;;;1.67;;
15931;SDS011;8065;49.520;11.284;2023-04-24T09:57:47;2.20;;;2.00;;
15931;SDS011;8065;49.520;11.284;2023-04-24T10:00:17;2.40;;;2.20;;
15931;SDS011;8065;49.520;11.284;2023-04-24T10:02:45;1.80;;;1.70;;
15931;SDS011;8065;49.520;11.284;2023-04-24T10:05:16;1.70;;;1.60;;
15931;SDS011;8065;49.520;11.284;2023-04-24T10:07:44;1.77;;;1.60;;
15931;SDS011;8065;49.520;11.284;2023-04-24T10:10:11;1.97;;;1.87;;
15931;SDS011;8065;49.520;11.284;2023-04-24T10:12:37;2.90;;;1.97;;
15931;SDS011;8065;49.520;11.284;2023-04-24T10:15:04;2.43;;;1.60;;
15931;SDS011;8065;49.520;11.284;2023-04-24T10:17:31;1.73;;;1.50;;
15931;SDS011;8065;49.520;11.284;2023-04-24T10:19:58;4.07;;;1.70;;
15931;SDS011;8065;49.520;11.284;2023-04-24T10:22:26;1.30;;;1.20;;
15931;SDS011;8065;49.520;11.284;2023-04-24T10:24:56;1.27;;;1.17;;
15931;SDS011;8065;49.520;11.284;2023-04-24T10:27:24;1.10;;;1.10;;
15931;SDS011;8065;49.520;11.284;2023-04-24T10:29:52;1.20;;;1.13;;
15931;SDS011;8065;49.520;11.284;2023-04-24T10:32:19;2.77;;;1.30;;
15931;SDS011;8065;49.520;11.284;2023-04-24T10:34:45;1.10;;;1.10;;
15931;SDS011;8065;49.520;11.284;2023-04-24T10:37:12;2.77;;;1.30;;
15931;SDS011;8065;49.520;11.284;2023-04-24T10:39:39;1.97;;;1.10;;
15931;SDS011;8065;49.520;11.284;2023-04-24T10:42:15;1.30;;;1.20;;
15931;SDS011;8065;49.520;11.284;2023-04-24T10:47:12;1.17;;;1.17;;
15931;SDS011;8065;49.520;11.284;2023-04-24T10:49:39;3.90;;;1.30;;
15931;SDS011;8065;49.520;11.284;2023-04-24T10:52:06;1.13;;;1.10;;
15931;SDS011;8065;49.520;11.284;2023-04-24T10:54:35;1.10;;;1.10;;
15931;SDS011;8065;49.520;11.284;2023-04-24T11:00:12;1.00;;;1.00;;
15931;SDS011;8065;49.520;11.284;2023-04-24T11:02:41;1.17;;;1.00;;
15931;SDS011;8065;49.520;11.284;2023-04-24T11:05:14;0.70;;;0.70;;
15931;SDS011;8065;49.520;11.284;2023-04-24T11:10:43;3.50;;;0.80;;
15931;SDS011;8065;49.520;11.284;2023-04-24T11:13:11;3.20;;;0.87;;
15931;SDS011;8065;49.520;11.284;2023-04-24T11:15:41;0.90;;;0.90;;
15931;SDS011;8065;49.520;11.284;2023-04-24T11:18:07;0.90;;;0.90;;
15931;SDS011;8065;49.520;11.284;2023-04-24T11:20:41;1.17;;;0.80;;
15931;SDS011;8065;49.520;11.284;2023-04-24T11:23:08;0.70;;;0.70;;
15931;SDS011;8065;49.520;11.284;2023-04-24T11:25:38;0.77;;;0.77;;
15931;SDS011;8065;49.520;11.284;2023-04-24T11:28:04;0.90;;;0.90;;
15931;SDS011;8065;49.520;11.284;2023-04-24T11:30:33;2.57;;;0.93;;
15931;SDS011;8065;49.520;11.284;2023-04-24T11:33:03;2.57;;;1.00;;
15931;SDS011;8065;49.520;11.284;2023-04-24T11:35:34;1.70;;;1.10;;
15931;SDS011;8065;49.520;11.284;2023-04-24T11:38:03;0.90;;;0.90;;
15931;SDS011;8065;49.520;11.284;2023-04-24T11:40:30;1.03;;;1.03;;
15931;SDS011;8065;49.520;11.284;2023-04-24T11:42:56;1.37;;;0.97;;
15931;SDS011;8065;49.520;11.284;2023-04-24T11:45:26;3.67;;;1.20;;
15931;SDS011;8065;49.520;11.284;2023-04-24T11:47:57;1.70;;;1.03;;
15931;SDS011;8065;49.520;11.284;2023-04-24T11:50:24;1.20;;;1.20;;
15931;SDS011;8065;49.520;11.284;2023-04-24T11:52:52;1.10;;;1.10;;
15931;SDS011;8065;49.520;11.284;2023-04-24T11:55:23;3.57;;;1.50;;
15931;SDS011;8065;49.520;11.284;2023-04-24T11:57:52;1.20;;;1.20;;
15931;SDS011;8065;49.520;11.284;2023-04-24T12:00:21;1.60;;;1.50;;
15931;SDS011;8065;49.520;11.284;2023-04-24T12:02:49;1.50;;;1.40;;
15931;SDS011;8065;49.520;11.284;2023-04-24T12:05:20;1.23;;;1.20;;
15931;SDS011;8065;49.520;11.284;2023-04-24T12:07:47;1.50;;;1.50;;
15931;SDS011;8065;49.520;11.284;2023-04-24T12:10:14;1.37;;;1.27;;
15931;SDS011;8065;49.520;11.284;2023-04-24T12:12:40;1.50;;;1.40;;
15931;SDS011;8065;49.520;11.284;2023-04-24T12:15:07;1.40;;;1.40;;
15931;SDS011;8065;49.520;11.284;2023-04-24T12:17:35;1.43;;;1.40;;
15931;SDS011;8065;49.520;11.284;2023-04-24T12:20:03;1.13;;;1.10;;
15931;SDS011;8065;49.520;11.284;2023-04-24T12:22:44;1.13;;;1.10;;
15931;SDS011;8065;49.520;11.284;2023-04-24T12:25:11;1.27;;;1.03;;
15931;SDS011;8065;49.520;11.284;2023-04-24T12:27:38;1.20;;;1.10;;
15931;SDS011;8065;49.520;11.284;2023-04-24T12:30:05;4.17;;;1.47;;
15931;SDS011;8065;49.520;11.284;2023-04-24T12:32:40;1.50;;;1.40;;
15931;SDS011;8065;49.520;11.284;2023-04-24T12:35:08;2.30;;;1.60;;
15931;SDS011;8065;49.520;11.284;2023-04-24T12:37:34;3.27;;;1.43;;
15931;SDS011;8065;49.520;11.284;2023-04-24T12:40:03;1.67;;;1.53;;
15931;SDS011;8065;49.520;11.284;2023-04-24T12:42:31;1.33;;;1.23;;
15931;SDS011;8065;49.520;11.284;2023-04-24T12:44:59;1.73;;;1.63;;
15931;SDS011;8065;49.520;11.284;2023-04-24T12:47:28;1.73;;;1.60;;
15931;SDS011;8065;49.520;11.284;2023-04-24T12:49:55;1.67;;;1.50;;
15931;SDS011;8065;49.520;11.284;2023-04-24T12:52:21;1.73;;;1.63;;
15931;SDS011;8065;49.520;11.284;2023-04-24T12:54:48;2.00;;;1.80;;
15931;SDS011;8065;49.520;11.284;2023-04-24T12:57:17;2.40;;;1.53;;
15931;SDS011;8065;49.520;11.284;2023-04-24T12:59:44;1.50;;;1.40;;
15931;SDS011;8065;49.520;11.284;2023-04-24T13:02:11;1.40;;;1.30;;
15931;SDS011;8065;49.520;11.284;2023-04-24T13:04:38;2.13;;;1.47;;
15931;SDS011;8065;49.520;11.284;2023-04-24T13:07:04;1.33;;;1.23;;
15931;SDS011;8065;49.520;11.284;2023-04-24T13:09:31;1.47;;;1.37;;
15931;SDS011;8065;49.520;11.284;2023-04-24T13:12:00;2.10;;;1.40;;
15931;SDS011;8065;49.520;11.284;2023-04-24T13:14:28;1.63;;;1.47;;
15931;SDS011;8065;49.520;11.284;2023-04-24T13:16:54;1.30;;;1.30;;
15931;SDS011;8065;49.520;11.284;2023-04-24T13:19:21;1.40;;;1.30;;
15931;SDS011;8065;49.520;11.284;2023-04-24T13:21:50;1.47;;;1.37;;
15931;SDS011;8065;49.520;11.284;2023-04-24T13:24:16;2.50;;;1.40;;
15931;SDS011;8065;49.520;11.284;2023-04-24T13:26:43;1.43;;;1.30;;
15931;SDS011;8065;49.520;11.284;2023-04-24T13:29:09;1.63;;;1.50;;
15931;SDS011;8065;49.520;11.284;2023-04-24T13:31:37;1.43;;;1.20;;
15931;SDS011;8065;49.520;11.284;2023-04-24T13:34:04;1.43;;;1.30;;
15931;SDS011;8065;49.520;11.284;2023-04-24T13:36:30;1.00;;;1.00;;
15931;SDS011;8065;49.520;11.284;2023-04-24T13:38:57;1.40;;;1.30;;
15931;SDS011;8065;49.520;11.284;2023-04-24T13:41:24;1.73;;;1.53;;
15931;SDS011;8065;49.520;11.284;2023-04-24T13:43:50;1.27;;;1.17;;
15931;SDS011;8065;49.520;11.284;2023-04-24T13:46:17;1.20;;;1.20;;
15931;SDS011;8065;49.520;11.284;2023-04-24T13:48:45;1.63;;;1.53;;
15931;SDS011;8065;49.520;11.284;2023-04-24T13:51:11;2.30;;;1.50;;
15931;SDS011;8065;49.520;11.284;2023-04-24T13:53:38;2.47;;;1.60;;
15931;SDS011;8065;49.520;11.284;2023-04-24T13:56:04;1.37;;;1.27;;
15931;SDS011;8065;49.520;11.284;2023-04-24T13:58:31;1.03;;;1.03;;
15931;SDS011;8065;49.520;11.284;2023-04-24T14:00:58;1.60;;;1.50;;
15931;SDS011;8065;49.520;11.284;2023-04-24T14:03:24;2.23;;;1.80;;
15931;SDS011;8065;49.520;11.284;2023-04-24T14:05:52;3.70;;;1.70;;
15931;SDS011;8065;49.520;11.284;2023-04-24T14:08:18;1.97;;;1.60;;
15931;SDS011;8065;49.520;11.284;2023-04-24T14:10:45;1.87;;;1.70;;
15931;SDS011;8065;49.520;11.284;2023-04-24T14:13:11;1.10;;;1.00;;
15931;SDS011;8065;49.520;11.284;2023-04-24T14:15:38;1.07;;;1.07;;
15931;SDS011;8065;49.520;11.284;2023-04-24T14:18:04;1.27;;;1.17;;
15931;SDS011;8065;49.520;11.284;2023-04-24T14:20:31;1.13;;;1.13;;
15931;SDS011;8065;49.520;11.284;2023-04-24T14:22:59;1.53;;;1.50;;
15931;SDS011;8065;49.520;11.284;2023-04-24T14:25:25;1.60;;;1.50;;
15931;SDS011;8065;49.520;11.284;2023-04-24T14:27:52;2.67;;;1.47;;
15931;SDS011;8065;49.520;11.284;2023-04-24T14:30:19;1.73;;;1.63;;
15931;SDS011;8065;49.520;11.284;2023-04-24T14:32:45;2.90;;;1.90;;
15931;SDS011;8065;49.520;11.284;2023-04-24T14:35:12;1.70;;;1.60;;
15931;SDS011;8065;49.520;11.284;2023-04-24T14:37:39;1.63;;;1.53;;
15931;SDS011;8065;49.520;11.284;2023-04-24T14:40:09;1.73;;;1.63;;
15931;SDS011;8065;49.520;11.284;2023-04-24T14:42:36;3.03;;;1.60;;
15931;SDS011;8065;49.520;11.284;2023-04-24T14:45:03;1.70;;;1.60;;
15931;SDS011;8065;49.520;11.284;2023-04-24T14:47:30;1.80;;;1.70;;
15931;SDS011;8065;49.520;11.284;2023-04-24T14:49:56;2.37;;;1.80;;
15931;SDS011;8065;49.520;11.284;2023-04-24T14:52:23;1.97;;;1.87;;
15931;SDS011;8065;49.520;11.284;2023-04-24T14:54:49;2.20;;;1.67;;
15931;SDS011;8065;49.520;11.284;2023-04-24T14:57:17;1.80;;;1.67;;